Time,TemperatureF,DewpointF,PressureIn,WindDirection,WindDirectionDegrees,WindSpeedMPH,WindSpeedGustMPH,Humidity,HourlyPrecipIn,Conditions,Clouds,dailyrainin,SoftwareType,DateUTC
2013-07-10 00:00:00,73.5,73.5,29.68,NNE,19,0.0,0.0,100,0.00,,,0.00,VWS V14.01,2013-07-10 04:00:00,
2013-07-10 00:01:00,73.5,73.5,29.68,NNE,19,0.0,0.0,100,0.00,,,0.00,VWS V14.01,2013-07-10 04:01:00,
2013-07-10 00:06:00,73.5,73.5,29.68,NNE,19,0.0,0.0,100,0.00,,,0.00,VWS V14.01,2013-07-10 04:06:00,
2013-07-10 00:10:00,73.5,73.5,29.68,NNE,19,0.0,0.0,100,0.00,,,0.00,VWS V14.01,2013-07-10 04:10:00,
2013-07-10 00:11:00,73.5,73.5,29.68,NNE,19,0.0,0.0,100,0.00,,,0.00,VWS V14.01,2013-07-10 04:11:00,
2013-07-10 00:16:00,73.5,73.5,29.68,NNE,19,0.0,0.0,100,0.00,,,0.00,VWS V14.01,2013-07-10 04:16:00,
2013-07-10 00:20:00,73.3,73.3,29.68,NNE,19,0.0,0.0,100,0.00,,,0.00,VWS V14.01,2013-07-10 04:20:00,
2013-07-10 00:21:00,73.3,73.3,29.68,NNE,19,0.0,0.0,100,0.00,,,0.00,VWS V14.01,2013-07-10 04:21:00,
2013-07-10 00:26:00,73.3,73.3,29.68,NNE,19,0.0,0.0,100,0.00,,,0.00,VWS V14.01,2013-07-10 04:26:00,
2013-07-10 00:30:00,73.3,73.3,29.68,NNE,19,0.0,0.0,100,0.00,,,0.00,VWS V14.01,2013-07-10 04:30:00,
2013-07-10 00:31:00,73.3,73.3,29.68,NNE,19,0.0,0.0,100,0.00,,,0.00,VWS V14.01,2013-07-10 04:31:00,
2013-07-10 00:36:00,73.3,73.3,29.71,WSW,249,2.2,5.4,100,0.00,,,0.00,VWS V14.01,2013-07-10 04:36:00,
2013-07-10 00:40:00,73.1,73.1,29.71,WSW,243,0.0,5.4,100,0.00,,,0.00,VWS V14.01,2013-07-10 04:40:00,
2013-07-10 00:41:00,73.1,73.1,29.71,WSW,243,0.0,0.0,100,0.00,,,0.00,VWS V14.01,2013-07-10 04:41:00,
2013-07-10 00:46:00,73.1,73.1,29.71,SSW,196,2.7,2.7,100,0.00,,,0.00,VWS V14.01,2013-07-10 04:46:00,
2013-07-10 00:50:00,73.1,73.1,29.71,SW,230,0.0,2.7,100,0.00,,,0.00,VWS V14.01,2013-07-10 04:50:00,
2013-07-10 00:56:00,72.9,72.9,29.71,SW,230,0.0,0.0,100,0.00,,,0.00,VWS V14.01,2013-07-10 04:56:00,
2013-07-10 01:00:00,72.9,72.9,29.71,NW,319,0.0,0.0,100,0.00,,,0.00,VWS V14.01,2013-07-10 05:00:00,
2013-07-10 01:01:00,72.9,72.9,29.71,NW,319,0.0,0.0,100,0.00,,,0.00,VWS V14.01,2013-07-10 05:01:00,
2013-07-10 01:06:00,72.8,72.8,29.71,SSW,211,0.0,0.0,100,0.00,,,0.00,VWS V14.01,2013-07-10 05:06:00,
2013-07-10 01:10:00,72.8,72.8,29.71,SSW,192,0.0,0.0,100,0.00,,,0.00,VWS V14.01,2013-07-10 05:10:00,
2013-07-10 01:11:00,72.8,72.8,29.71,SSW,192,0.0,0.0,100,0.00,,,0.00,VWS V14.01,2013-07-10 05:11:00,
2013-07-10 01:16:00,72.8,72.8,29.71,SSE,168,0.0,2.7,100,0.00,,,0.00,VWS V14.01,2013-07-10 05:16:00,
2013-07-10 01:20:00,72.8,72.8,29.71,South,172,0.0,2.7,100,0.00,,,0.00,VWS V14.01,2013-07-10 05:20:00,
2013-07-10 01:21:00,72.8,72.8,29.71,South,172,0.0,0.0,100,0.00,,,0.00,VWS V14.01,2013-07-10 05:21:00,
2013-07-10 01:27:00,72.4,72.4,29.71,South,172,0.0,0.0,100,0.00,,,0.00,VWS V14.01,2013-07-10 05:27:00,
2013-07-10 01:30:00,72.2,72.2,29.71,South,172,0.0,0.0,100,0.00,,,0.00,VWS V14.01,2013-07-10 05:30:00,
2013-07-10 01:37:00,72.0,72.0,29.71,South,172,0.0,0.0,100,0.00,,,0.00,VWS V14.01,2013-07-10 05:37:00,
2013-07-10 01:40:00,72.0,72.0,29.71,South,172,0.0,0.0,100,0.00,,,0.00,VWS V14.01,2013-07-10 05:40:00,
2013-07-10 01:42:00,72.0,72.0,29.71,South,172,0.0,0.0,100,0.00,,,0.00,VWS V14.01,2013-07-10 05:42:00,
2013-07-10 01:47:00,72.0,72.0,29.71,South,172,0.0,0.0,100,0.00,,,0.00,VWS V14.01,2013-07-10 05:47:00,
2013-07-10 01:50:00,72.0,72.0,29.71,South,177,0.0,0.0,100,0.00,,,0.00,VWS V14.01,2013-07-10 05:50:00,
2013-07-10 01:52:00,71.7,71.7,29.71,South,177,0.0,0.0,100,0.00,,,0.00,VWS V14.01,2013-07-10 05:52:00,
2013-07-10 01:57:00,71.7,71.7,29.71,South,177,0.0,0.0,100,0.00,,,0.00,VWS V14.01,2013-07-10 05:57:00,
2013-07-10 02:00:00,71.5,71.5,29.71,South,177,0.0,0.0,100,0.00,,,0.00,VWS V14.01,2013-07-10 06:00:00,
2013-07-10 02:02:00,71.5,71.5,29.71,South,177,0.0,0.0,100,0.00,,,0.00,VWS V14.01,2013-07-10 06:02:00,
2013-07-10 02:07:00,71.5,71.5,29.71,South,177,0.0,0.0,100,0.00,,,0.00,VWS V14.01,2013-07-10 06:07:00,
2013-07-10 02:10:00,71.5,71.5,29.71,South,176,0.0,0.0,100,0.00,,,0.00,VWS V14.01,2013-07-10 06:10:00,
2013-07-10 02:12:00,71.5,71.5,29.68,South,176,0.0,0.0,100,0.00,,,0.00,VWS V14.01,2013-07-10 06:12:00,
2013-07-10 02:17:00,71.5,71.5,29.68,South,176,0.0,0.0,100,0.00,,,0.00,VWS V14.01,2013-07-10 06:17:00,
2013-07-10 02:20:00,71.3,71.3,29.68,South,176,0.0,0.0,100,0.00,,,0.00,VWS V14.01,2013-07-10 06:20:00,
2013-07-10 02:27:00,71.5,71.5,29.68,South,176,0.0,0.0,100,0.00,,,0.00,VWS V14.01,2013-07-10 06:27:00,
2013-07-10 02:32:00,71.5,71.5,29.68,South,176,0.0,0.0,100,0.00,,,0.00,VWS V14.01,2013-07-10 06:32:00,
2013-07-10 02:37:00,71.5,71.5,29.68,South,176,0.0,0.0,100,0.00,,,0.00,VWS V14.01,2013-07-10 06:37:00,
2013-07-10 02:40:00,71.3,71.3,29.68,South,176,0.0,0.0,100,0.00,,,0.00,VWS V14.01,2013-07-10 06:40:00,
2013-07-10 02:42:00,71.5,71.5,29.68,ENE,59,0.0,0.0,100,0.00,,,0.00,VWS V14.01,2013-07-10 06:42:00,
2013-07-10 02:47:00,71.5,71.5,29.68,NE,41,2.7,4.0,100,0.00,,,0.00,VWS V14.01,2013-07-10 06:47:00,
2013-07-10 02:52:00,71.5,71.5,29.65,North,9,3.1,4.0,100,0.00,,,0.00,VWS V14.01,2013-07-10 06:52:00,
2013-07-10 02:57:00,71.5,71.5,29.65,NE,34,3.1,4.0,100,0.00,,,0.00,VWS V14.01,2013-07-10 06:57:00,
2013-07-10 03:00:00,71.3,71.3,29.65,NE,42,3.6,4.0,100,0.00,,,0.00,VWS V14.01,2013-07-10 07:00:00,
2013-07-10 03:02:00,71.3,71.3,29.65,NNE,25,2.7,3.6,100,0.00,,,0.00,VWS V14.01,2013-07-10 07:02:00,
2013-07-10 03:07:00,71.3,71.3,29.65,ENE,57,0.0,3.6,100,0.00,,,0.00,VWS V14.01,2013-07-10 07:07:00,
2013-07-10 03:10:00,71.3,71.3,29.65,NE,56,2.7,3.6,100,0.00,,,0.00,VWS V14.01,2013-07-10 07:10:00,
2013-07-10 03:12:00,71.3,71.3,29.65,NE,56,2.2,3.1,100,0.00,,,0.00,VWS V14.01,2013-07-10 07:12:00,
2013-07-10 03:17:00,71.3,71.3,29.65,NE,56,2.2,3.6,100,0.00,,,0.00,VWS V14.01,2013-07-10 07:17:00,
2013-07-10 03:20:00,71.3,71.3,29.65,NE,56,2.2,3.6,100,0.00,,,0.00,VWS V14.01,2013-07-10 07:20:00,
2013-07-10 03:22:00,71.3,71.3,29.65,NE,56,0.0,2.2,100,0.00,,,0.00,VWS V14.01,2013-07-10 07:22:00,
2013-07-10 03:27:00,71.3,71.3,29.65,NE,56,0.0,2.2,100,0.00,,,0.00,VWS V14.01,2013-07-10 07:27:00,
2013-07-10 03:30:00,71.5,71.5,29.65,NE,56,0.0,2.2,100,0.00,,,0.00,VWS V14.01,2013-07-10 07:30:00,
2013-07-10 03:32:00,71.5,71.5,29.65,NE,56,0.0,0.0,100,0.00,,,0.00,VWS V14.01,2013-07-10 07:32:00,
2013-07-10 03:37:00,71.5,71.5,29.65,NE,56,0.0,0.0,100,0.00,,,0.00,VWS V14.01,2013-07-10 07:37:00,
2013-07-10 03:40:00,71.5,71.5,29.65,NE,56,0.0,0.0,100,0.00,,,0.00,VWS V14.01,2013-07-10 07:40:00,
2013-07-10 03:47:00,71.5,71.5,29.65,NE,56,0.0,0.0,100,0.00,,,0.00,VWS V14.01,2013-07-10 07:47:00,
2013-07-10 03:50:00,71.5,71.5,29.65,NE,56,0.0,0.0,100,0.00,,,0.00,VWS V14.01,2013-07-10 07:50:00,
2013-07-10 03:52:00,71.5,71.5,29.65,NE,56,0.0,0.0,100,0.00,,,0.00,VWS V14.01,2013-07-10 07:52:00,
2013-07-10 03:57:00,71.5,71.5,29.65,NE,56,0.0,0.0,100,0.00,,,0.00,VWS V14.01,2013-07-10 07:57:00,
2013-07-10 04:00:00,71.5,71.5,29.65,NE,56,0.0,0.0,100,0.00,,,0.00,VWS V14.01,2013-07-10 08:00:00,
2013-07-10 04:02:00,71.5,71.5,29.65,NE,56,0.0,0.0,100,0.00,,,0.00,VWS V14.01,2013-07-10 08:02:00,
2013-07-10 04:07:00,71.5,71.5,29.65,NE,56,0.0,0.0,100,0.00,,,0.00,VWS V14.01,2013-07-10 08:07:00,
2013-07-10 04:10:00,71.5,71.5,29.65,NE,56,0.0,0.0,100,0.00,,,0.00,VWS V14.01,2013-07-10 08:10:00,
2013-07-10 04:12:00,71.3,71.3,29.65,NE,56,0.0,0.0,100,0.00,,,0.00,VWS V14.01,2013-07-10 08:12:00,
2013-07-10 04:17:00,71.3,71.3,29.65,NE,56,0.0,0.0,100,0.00,,,0.00,VWS V14.01,2013-07-10 08:17:00,
2013-07-10 04:20:00,71.3,71.3,29.65,NE,56,0.0,0.0,100,0.00,,,0.00,VWS V14.01,2013-07-10 08:20:00,
2013-07-10 04:22:00,71.3,71.3,29.65,NE,56,0.0,0.0,100,0.00,,,0.00,VWS V14.01,2013-07-10 08:22:00,
2013-07-10 04:27:00,71.3,71.3,29.65,NE,56,0.0,2.2,100,0.00,,,0.00,VWS V14.01,2013-07-10 08:27:00,
2013-07-10 04:30:00,71.3,71.3,29.65,NE,56,0.0,2.2,100,0.00,,,0.00,VWS V14.01,2013-07-10 08:30:00,
2013-07-10 04:32:00,71.3,71.3,29.65,NE,56,0.0,0.0,100,0.00,,,0.00,VWS V14.01,2013-07-10 08:32:00,
2013-07-10 04:37:00,71.3,71.3,29.65,NE,56,0.0,0.0,100,0.00,,,0.00,VWS V14.01,2013-07-10 08:37:00,
2013-07-10 04:40:00,71.3,71.3,29.65,NE,56,0.0,0.0,100,0.00,,,0.00,VWS V14.01,2013-07-10 08:40:00,
2013-07-10 04:42:00,71.3,71.3,29.65,NE,56,0.0,0.0,100,0.00,,,0.00,VWS V14.01,2013-07-10 08:42:00,
2013-07-10 04:47:00,71.3,71.3,29.65,NE,56,0.0,0.0,100,0.00,,,0.00,VWS V14.01,2013-07-10 08:47:00,
2013-07-10 04:50:00,71.3,71.3,29.65,NE,56,0.0,0.0,100,0.00,,,0.00,VWS V14.01,2013-07-10 08:50:00,
2013-07-10 04:57:00,71.3,71.3,29.65,NE,56,0.0,0.0,100,0.00,,,0.00,VWS V14.01,2013-07-10 08:57:00,
2013-07-10 05:00:00,71.3,71.3,29.65,NE,56,0.0,0.0,100,0.00,,,0.00,VWS V14.01,2013-07-10 09:00:00,
2013-07-10 05:07:00,71.3,71.3,29.65,NE,56,0.0,0.0,100,0.00,,,0.00,VWS V14.01,2013-07-10 09:07:00,
2013-07-10 05:10:00,71.3,71.3,29.65,NE,56,0.0,0.0,100,0.00,,,0.00,VWS V14.01,2013-07-10 09:10:00,
2013-07-10 05:12:00,71.3,71.3,29.65,NE,56,0.0,0.0,100,0.00,,,0.00,VWS V14.01,2013-07-10 09:12:00,
2013-07-10 05:17:00,71.1,71.1,29.65,NE,56,0.0,0.0,100,0.00,,,0.00,VWS V14.01,2013-07-10 09:17:00,
2013-07-10 05:20:00,71.0,71.0,29.65,NE,56,0.0,0.0,100,0.00,,,0.00,VWS V14.01,2013-07-10 09:20:00,
2013-07-10 05:27:00,71.0,71.0,29.65,NE,56,0.0,0.0,100,0.00,,,0.00,VWS V14.01,2013-07-10 09:27:00,
2013-07-10 05:30:00,71.0,71.0,29.65,NE,56,0.0,0.0,100,0.00,,,0.00,VWS V14.01,2013-07-10 09:30:00,
2013-07-10 05:37:00,70.8,70.8,29.65,NE,56,0.0,0.0,100,0.00,,,0.00,VWS V14.01,2013-07-10 09:37:00,
2013-07-10 05:40:00,70.8,70.8,29.65,NE,56,0.0,0.0,100,0.00,,,0.00,VWS V14.01,2013-07-10 09:40:00,
2013-07-10 05:42:00,70.8,70.8,29.65,NE,56,0.0,0.0,100,0.00,,,0.00,VWS V14.01,2013-07-10 09:42:00,
2013-07-10 05:47:00,70.8,70.8,29.65,NE,56,0.0,0.0,100,0.00,,,0.00,VWS V14.01,2013-07-10 09:47:00,
2013-07-10 05:50:00,70.8,70.8,29.65,NE,56,0.0,0.0,100,0.00,,,0.00,VWS V14.01,2013-07-10 09:50:00,
2013-07-10 05:52:00,70.8,70.8,29.65,NE,56,0.0,0.0,100,0.00,,,0.00,VWS V14.01,2013-07-10 09:52:00,
2013-07-10 05:57:00,70.8,70.8,29.65,NE,56,0.0,0.0,100,0.00,,,0.00,VWS V14.01,2013-07-10 09:57:00,
2013-07-10 06:02:00,70.8,70.8,29.65,NE,56,0.0,0.0,100,0.00,,,0.00,VWS V14.01,2013-07-10 10:02:00,
2013-07-10 06:07:00,70.8,70.8,29.65,NE,56,0.0,0.0,100,0.00,,,0.00,VWS V14.01,2013-07-10 10:07:00,
2013-07-10 06:10:00,71.0,71.0,29.65,NE,56,0.0,0.0,100,0.00,,,0.00,VWS V14.01,2013-07-10 10:10:00,
2013-07-10 06:17:00,71.1,71.1,29.65,NE,56,0.0,0.0,100,0.00,,,0.00,VWS V14.01,2013-07-10 10:17:00,
2013-07-10 06:20:00,71.1,71.1,29.65,NE,56,0.0,0.0,100,0.00,,,0.00,VWS V14.01,2013-07-10 10:20:00,
2013-07-10 06:22:00,71.1,71.1,29.65,NE,56,0.0,0.0,100,0.00,,,0.00,VWS V14.01,2013-07-10 10:22:00,
2013-07-10 06:27:00,71.1,71.1,29.65,NE,56,0.0,0.0,100,0.00,,,0.00,VWS V14.01,2013-07-10 10:27:00,
2013-07-10 06:30:00,71.1,71.1,29.65,NE,56,0.0,0.0,100,0.00,,,0.00,VWS V14.01,2013-07-10 10:30:00,
2013-07-10 06:37:00,71.1,71.1,29.65,NE,56,0.0,0.0,100,0.00,,,0.00,VWS V14.01,2013-07-10 10:37:00,
2013-07-10 06:42:00,71.1,71.1,29.65,NE,56,0.0,0.0,100,0.00,,,0.00,VWS V14.01,2013-07-10 10:42:00,
2013-07-10 06:47:00,71.1,71.1,29.65,NE,56,0.0,0.0,100,0.00,,,0.00,VWS V14.01,2013-07-10 10:47:00,
2013-07-10 06:50:00,71.1,71.1,29.65,NE,56,0.0,0.0,100,0.00,,,0.00,VWS V14.01,2013-07-10 10:50:00,
2013-07-10 06:52:00,71.1,71.1,29.65,NE,56,0.0,0.0,100,0.00,,,0.00,VWS V14.01,2013-07-10 10:52:00,
2013-07-10 06:57:00,71.0,71.0,29.65,NE,56,0.0,0.0,100,0.00,,,0.00,VWS V14.01,2013-07-10 10:57:00,
2013-07-10 07:00:00,71.0,71.0,29.65,NE,56,0.0,0.0,100,0.00,,,0.00,VWS V14.01,2013-07-10 11:00:00,
2013-07-10 07:02:00,71.0,71.0,29.65,NE,56,0.0,0.0,100,0.00,,,0.00,VWS V14.01,2013-07-10 11:02:00,
2013-07-10 07:07:00,71.0,71.0,29.65,NE,56,0.0,0.0,100,0.00,,,0.00,VWS V14.01,2013-07-10 11:07:00,
2013-07-10 07:10:00,71.0,71.0,29.65,NE,56,0.0,0.0,100,0.00,,,0.00,VWS V14.01,2013-07-10 11:10:00,
2013-07-10 07:12:00,71.0,71.0,29.65,NE,56,0.0,0.0,100,0.00,,,0.00,VWS V14.01,2013-07-10 11:12:00,
2013-07-10 07:17:00,71.0,71.0,29.65,NE,56,0.0,0.0,100,0.00,,,0.00,VWS V14.01,2013-07-10 11:17:00,
2013-07-10 07:22:00,71.1,71.1,29.65,NE,56,0.0,0.0,100,0.00,,,0.00,VWS V14.01,2013-07-10 11:22:00,
2013-07-10 07:27:00,71.3,71.3,29.65,NE,56,0.0,0.0,100,0.00,,,0.00,VWS V14.01,2013-07-10 11:27:00,
2013-07-10 07:30:00,71.3,71.3,29.65,NE,56,0.0,0.0,100,0.00,,,0.00,VWS V14.01,2013-07-10 11:30:00,
2013-07-10 07:32:00,71.3,71.3,29.65,NE,56,0.0,0.0,100,0.00,,,0.00,VWS V14.01,2013-07-10 11:32:00,
2013-07-10 07:37:00,71.3,71.3,29.65,NE,56,0.0,0.0,100,0.00,,,0.00,VWS V14.01,2013-07-10 11:37:00,
2013-07-10 07:40:00,71.3,71.3,29.65,NE,56,0.0,0.0,100,0.00,,,0.00,VWS V14.01,2013-07-10 11:40:00,
2013-07-10 07:42:00,71.5,71.5,29.65,NE,56,0.0,0.0,100,0.00,,,0.00,VWS V14.01,2013-07-10 11:42:00,
2013-07-10 07:47:00,71.7,71.7,29.65,NE,56,0.0,0.0,100,0.00,,,0.00,VWS V14.01,2013-07-10 11:47:00,
2013-07-10 07:50:00,71.7,71.7,29.65,NE,56,0.0,0.0,100,0.00,,,0.00,VWS V14.01,2013-07-10 11:50:00,
2013-07-10 07:52:00,71.7,71.7,29.65,NE,56,0.0,0.0,100,0.00,,,0.00,VWS V14.01,2013-07-10 11:52:00,
2013-07-10 07:57:00,71.9,71.9,29.65,NE,56,0.0,0.0,100,0.00,,,0.00,VWS V14.01,2013-07-10 11:57:00,
2013-07-10 08:00:00,71.9,71.9,29.65,NE,56,0.0,0.0,100,0.00,,,0.00,VWS V14.01,2013-07-10 12:00:00,
2013-07-10 08:02:00,71.9,71.9,29.65,NE,56,0.0,0.0,100,0.00,,,0.00,VWS V14.01,2013-07-10 12:02:00,
2013-07-10 08:07:00,72.0,72.0,29.65,NE,56,0.0,0.0,100,0.00,,,0.00,VWS V14.01,2013-07-10 12:07:00,
2013-07-10 08:10:00,72.2,72.2,29.65,NE,56,0.0,0.0,100,0.00,,,0.00,VWS V14.01,2013-07-10 12:10:00,
2013-07-10 08:12:00,72.4,72.4,29.65,NE,56,0.0,0.0,100,0.00,,,0.00,VWS V14.01,2013-07-10 12:12:00,
2013-07-10 08:17:00,72.6,72.6,29.65,NE,56,0.0,0.0,100,0.00,,,0.00,VWS V14.01,2013-07-10 12:17:00,
2013-07-10 08:22:00,72.6,72.6,29.65,NNE,18,2.2,3.6,100,0.00,,,0.00,VWS V14.01,2013-07-10 12:22:00,
2013-07-10 08:27:00,72.6,72.6,29.65,NE,50,0.0,3.6,100,0.00,,,0.00,VWS V14.01,2013-07-10 12:27:00,
2013-07-10 08:30:00,72.9,72.9,29.65,NE,50,0.0,3.6,100,0.00,,,0.00,VWS V14.01,2013-07-10 12:30:00,
2013-07-10 08:32:00,73.1,73.1,29.65,North,4,0.0,2.7,100,0.00,,,0.00,VWS V14.01,2013-07-10 12:32:00,
2013-07-10 08:37:00,73.1,73.1,29.65,NNE,27,0.0,2.7,100,0.00,,,0.00,VWS V14.01,2013-07-10 12:37:00,
2013-07-10 08:40:00,73.3,73.3,29.65,NNE,28,0.0,2.7,100,0.00,,,0.00,VWS V14.01,2013-07-10 12:40:00,
2013-07-10 08:42:00,73.3,73.3,29.65,NNE,28,0.0,0.0,100,0.00,,,0.00,VWS V14.01,2013-07-10 12:42:00,
2013-07-10 08:47:00,73.3,73.3,29.65,NNE,27,0.0,2.7,100,0.00,,,0.00,VWS V14.01,2013-07-10 12:47:00,
2013-07-10 08:50:00,73.3,73.3,29.65,NNE,27,0.0,2.7,100,0.00,,,0.00,VWS V14.01,2013-07-10 12:50:00,
2013-07-10 08:57:00,74.0,74.0,29.65,NE,47,2.7,4.0,100,0.00,,,0.00,VWS V14.01,2013-07-10 12:57:00,
2013-07-10 09:00:00,74.2,74.2,29.65,NE,34,0.0,4.0,100,0.00,,,0.00,VWS V14.01,2013-07-10 13:00:00,
2013-07-10 09:02:00,74.2,74.2,29.65,North,357,2.2,3.1,100,0.00,,,0.00,VWS V14.01,2013-07-10 13:02:00,
2013-07-10 09:07:00,74.2,74.2,29.65,NNE,23,0.0,3.1,100,0.00,,,0.00,VWS V14.01,2013-07-10 13:07:00,
2013-07-10 09:12:00,74.2,74.2,29.65,NNE,29,2.2,2.2,100,0.00,,,0.00,VWS V14.01,2013-07-10 13:12:00,
2013-07-10 09:17:00,74.7,74.8,29.68,NNE,25,0.0,3.1,100,0.00,,,0.00,VWS V14.01,2013-07-10 13:17:00,
2013-07-10 09:20:00,74.7,74.8,29.68,ENE,76,0.0,3.1,100,0.00,,,0.00,VWS V14.01,2013-07-10 13:20:00,
2013-07-10 09:22:00,74.7,74.8,29.68,ENE,66,0.0,2.7,100,0.00,,,0.00,VWS V14.01,2013-07-10 13:22:00,
2013-07-10 09:27:00,74.7,74.8,29.68,ENE,66,0.0,2.7,100,0.00,,,0.00,VWS V14.01,2013-07-10 13:27:00,
2013-07-10 09:30:00,74.7,74.8,29.68,ENE,66,0.0,2.7,100,0.00,,,0.00,VWS V14.01,2013-07-10 13:30:00,
2013-07-10 09:33:00,75.1,75.1,29.68,ENE,66,0.0,2.2,100,0.00,,,0.00,VWS V14.01,2013-07-10 13:33:00,
2013-07-10 09:38:00,75.1,75.1,29.68,ENE,58,2.7,2.7,100,0.00,,,0.00,VWS V14.01,2013-07-10 13:38:00,
2013-07-10 09:43:00,74.7,74.8,29.68,NE,56,2.7,2.7,100,0.00,,,0.00,VWS V14.01,2013-07-10 13:43:00,
2013-07-10 09:48:00,74.7,74.8,29.68,NE,48,2.2,2.7,100,0.00,,,0.00,VWS V14.01,2013-07-10 13:48:00,
2013-07-10 09:50:00,74.7,74.8,29.68,NE,47,2.2,2.7,100,0.00,,,0.00,VWS V14.01,2013-07-10 13:50:00,
2013-07-10 09:53:00,75.3,75.3,29.68,NE,47,0.0,2.2,100,0.00,,,0.00,VWS V14.01,2013-07-10 13:53:00,
2013-07-10 09:58:00,75.3,75.3,29.68,NNE,24,0.0,3.6,100,0.00,,,0.00,VWS V14.01,2013-07-10 13:58:00,
2013-07-10 10:03:00,76.0,76.0,29.68,NNW,332,0.0,3.6,100,0.00,,,0.00,VWS V14.01,2013-07-10 14:03:00,
2013-07-10 10:08:00,76.2,76.2,29.68,ENE,59,2.7,3.6,100,0.00,,,0.00,VWS V14.01,2013-07-10 14:08:00,
2013-07-10 10:10:00,76.2,76.2,29.68,ENE,57,3.6,3.6,100,0.00,,,0.00,VWS V14.01,2013-07-10 14:10:00,
2013-07-10 10:13:00,76.2,76.2,29.68,ENE,57,0.0,3.6,100,0.00,,,0.00,VWS V14.01,2013-07-10 14:13:00,
2013-07-10 10:18:00,76.5,76.6,29.68,ENE,57,0.0,3.6,100,0.00,,,0.00,VWS V14.01,2013-07-10 14:18:00,
2013-07-10 10:20:00,76.5,76.6,29.68,ENE,57,0.0,3.6,100,0.00,,,0.00,VWS V14.01,2013-07-10 14:20:00,
2013-07-10 10:23:00,76.5,76.6,29.68,NE,43,2.7,3.1,100,0.00,,,0.00,VWS V14.01,2013-07-10 14:23:00,
2013-07-10 10:28:00,76.9,76.9,29.71,ENE,58,3.6,3.6,100,0.00,,,0.00,VWS V14.01,2013-07-10 14:28:00,
2013-07-10 10:30:00,77.1,77.1,29.71,ENE,58,0.0,3.6,100,0.00,,,0.00,VWS V14.01,2013-07-10 14:30:00,
2013-07-10 10:38:00,77.3,77.3,29.71,ENE,74,0.0,3.6,100,0.00,,,0.00,VWS V14.01,2013-07-10 14:38:00,
2013-07-10 10:43:00,77.3,77.3,29.71,ENE,74,0.0,0.0,100,0.00,,,0.00,VWS V14.01,2013-07-10 14:43:00,
2013-07-10 10:48:00,77.3,77.3,29.71,ENE,74,0.0,0.0,100,0.00,,,0.00,VWS V14.01,2013-07-10 14:48:00,
2013-07-10 10:50:00,77.3,77.3,29.71,ENE,74,0.0,0.0,100,0.00,,,0.00,VWS V14.01,2013-07-10 14:50:00,
2013-07-10 10:58:00,77.8,77.8,29.71,ENE,57,3.6,4.0,100,0.00,,,0.00,VWS V14.01,2013-07-10 14:58:00,
2013-07-10 11:03:00,77.8,77.8,29.71,NE,37,3.6,3.6,100,0.00,,,0.00,VWS V14.01,2013-07-10 15:03:00,
2013-07-10 11:08:00,77.8,77.8,29.71,East,91,0.0,3.6,100,0.00,,,0.00,VWS V14.01,2013-07-10 15:08:00,
2013-07-10 11:10:00,77.8,77.8,29.71,NE,50,2.7,3.6,100,0.00,,,0.00,VWS V14.01,2013-07-10 15:10:00,
2013-07-10 11:13:00,78.2,78.2,29.71,ENE,62,0.0,3.6,100,0.00,,,0.00,VWS V14.01,2013-07-10 15:13:00,
2013-07-10 11:18:00,78.3,78.3,29.71,ENE,62,0.0,3.6,100,0.00,,,0.00,VWS V14.01,2013-07-10 15:18:00,
2013-07-10 11:20:00,78.5,78.5,29.71,North,10,3.1,3.6,100,0.00,,,0.00,VWS V14.01,2013-07-10 15:20:00,
2013-07-10 11:23:00,78.5,78.5,29.71,NE,46,2.7,4.9,100,0.00,,,0.00,VWS V14.01,2013-07-10 15:23:00,
2013-07-10 11:28:00,78.5,78.5,29.71,ENE,64,3.1,4.9,100,0.00,,,0.00,VWS V14.01,2013-07-10 15:28:00,
2013-07-10 11:30:00,78.5,78.5,29.71,ENE,59,2.7,4.9,100,0.00,,,0.00,VWS V14.01,2013-07-10 15:30:00,
2013-07-10 11:33:00,78.5,78.5,29.71,ENE,78,2.7,5.4,100,0.00,,,0.00,VWS V14.01,2013-07-10 15:33:00,
2013-07-10 11:38:00,78.9,78.9,29.71,ENE,61,2.7,5.4,100,0.00,,,0.00,VWS V14.01,2013-07-10 15:38:00,
2013-07-10 11:40:00,78.9,78.9,29.71,ENE,64,0.0,5.4,100,0.00,,,0.00,VWS V14.01,2013-07-10 15:40:00,
2013-07-10 11:43:00,79.1,79.1,29.68,ENE,64,0.0,0.0,100,0.00,,,0.00,VWS V14.01,2013-07-10 15:43:00,
2013-07-10 11:48:00,79.1,79.1,29.68,ENE,59,2.7,4.5,100,0.00,,,0.00,VWS V14.01,2013-07-10 15:48:00,
2013-07-10 11:50:00,79.1,79.1,29.68,ENE,60,3.6,4.9,100,0.00,,,0.00,VWS V14.01,2013-07-10 15:50:00,
2013-07-10 11:58:00,79.1,79.1,29.68,NE,46,3.6,4.0,100,0.00,,,0.00,VWS V14.01,2013-07-10 15:58:00,
2013-07-10 12:10:00,80.0,80.0,29.68,NE,37,2.7,5.8,100,0.00,,,0.00,VWS V14.01,2013-07-10 16:10:00,
2013-07-10 12:36:00,84.3,84.3,29.68,NE,34,6.3,6.3,100,0.00,,,0.00,VWS V14.01,2013-07-10 16:36:00,
2013-07-10 12:40:00,84.3,84.3,29.68,NNE,30,0.0,6.3,100,0.00,,,0.00,VWS V14.01,2013-07-10 16:40:00,
2013-07-10 12:41:00,84.1,84.1,29.68,NNE,12,5.4,5.4,100,0.00,,,0.00,VWS V14.01,2013-07-10 16:41:00,
2013-07-10 12:46:00,83.4,83.4,29.68,ENE,65,3.1,5.8,100,0.00,,,0.00,VWS V14.01,2013-07-10 16:46:00,
2013-07-10 12:50:00,82.8,82.8,29.68,ENE,74,0.0,5.8,100,0.00,,,0.00,VWS V14.01,2013-07-10 16:50:00,
2013-07-10 12:51:00,82.7,82.7,29.68,NE,38,3.1,3.1,100,0.00,,,0.00,VWS V14.01,2013-07-10 16:51:00,
2013-07-10 12:56:00,82.3,82.3,29.68,North,353,2.2,4.9,100,0.00,,,0.00,VWS V14.01,2013-07-10 16:56:00,
2013-07-10 13:00:00,82.1,82.1,29.68,NE,54,0.0,4.9,100,0.00,,,0.00,VWS V14.01,2013-07-10 17:00:00,
2013-07-10 13:01:00,81.9,81.9,29.68,NE,54,0.0,0.0,100,0.00,,,0.00,VWS V14.01,2013-07-10 17:01:00,
2013-07-10 13:06:00,81.9,81.9,29.65,ENE,72,0.0,3.6,100,0.00,,,0.00,VWS V14.01,2013-07-10 17:06:00,
2013-07-10 13:10:00,81.9,81.9,29.65,ENE,58,3.1,3.6,100,0.00,,,0.00,VWS V14.01,2013-07-10 17:10:00,
2013-07-10 13:16:00,81.6,81.6,29.65,NNE,30,3.1,3.6,100,0.00,,,0.00,VWS V14.01,2013-07-10 17:16:00,
2013-07-10 13:20:00,81.4,81.4,29.65,North,1,2.7,4.0,100,0.00,,,0.00,VWS V14.01,2013-07-10 17:20:00,
2013-07-10 13:26:00,80.7,80.7,29.65,NNE,21,3.1,5.4,100,0.00,,,0.00,VWS V14.01,2013-07-10 17:26:00,
2013-07-10 13:30:00,79.8,79.8,29.65,NW,319,2.2,5.4,100,0.00,,,0.00,VWS V14.01,2013-07-10 17:30:00,
2013-07-10 13:36:00,79.4,79.4,29.65,North,353,3.1,4.0,100,0.00,,,0.00,VWS V14.01,2013-07-10 17:36:00,
2013-07-10 13:40:00,79.6,79.6,29.65,NNE,17,2.7,4.0,100,0.00,,,0.00,VWS V14.01,2013-07-10 17:40:00,
2013-07-10 13:41:00,79.8,79.8,29.65,NE,42,3.1,4.9,100,0.00,,,0.00,VWS V14.01,2013-07-10 17:41:00,
2013-07-10 13:46:00,80.9,80.9,29.65,North,10,4.5,6.3,100,0.00,,,0.00,VWS V14.01,2013-07-10 17:46:00,
2013-07-10 13:50:00,81.4,81.4,29.65,North,3,4.0,6.3,100,0.00,,,0.00,VWS V14.01,2013-07-10 17:50:00,
2013-07-10 13:51:00,81.6,81.6,29.65,NE,39,5.4,6.3,100,0.00,,,0.00,VWS V14.01,2013-07-10 17:51:00,
2013-07-10 13:56:00,81.4,81.4,29.65,NNE,22,3.6,8.1,100,0.00,,,0.00,VWS V14.01,2013-07-10 17:56:00,
2013-07-10 14:00:00,80.9,80.9,29.65,NE,43,5.8,8.1,100,0.00,,,0.00,VWS V14.01,2013-07-10 18:00:00,
2013-07-10 14:01:00,80.9,80.9,29.65,NE,44,5.4,5.8,100,0.00,,,0.00,VWS V14.01,2013-07-10 18:01:00,
2013-07-10 14:06:00,79.8,79.8,29.65,North,353,8.1,11.4,100,0.00,,,0.00,VWS V14.01,2013-07-10 18:06:00,
2013-07-10 14:10:00,78.3,78.3,29.65,NE,50,6.3,16.8,100,0.00,,,0.00,VWS V14.01,2013-07-10 18:10:00,
2013-07-10 14:11:00,78.0,78.0,29.65,NE,40,6.7,10.1,100,0.00,,,0.00,VWS V14.01,2013-07-10 18:11:00,
2013-07-10 14:16:00,76.7,76.7,29.65,NE,53,8.3,11.0,100,0.00,,,0.00,VWS V14.01,2013-07-10 18:16:00,
2013-07-10 14:20:00,76.0,76.0,29.65,NNE,32,10.1,11.0,100,0.00,,,0.00,VWS V14.01,2013-07-10 18:20:00,
2013-07-10 14:21:00,76.0,76.0,29.65,NE,54,6.3,10.1,100,0.00,,,0.00,VWS V14.01,2013-07-10 18:21:00,
2013-07-10 14:26:00,76.0,76.0,29.65,NE,49,8.3,10.1,100,0.00,,,0.00,VWS V14.01,2013-07-10 18:26:00,
2013-07-10 14:30:00,76.5,76.6,29.65,NE,52,6.3,10.1,100,0.00,,,0.00,VWS V14.01,2013-07-10 18:30:00,
2013-07-10 14:31:00,77.1,77.1,29.65,NNE,30,8.3,8.3,100,0.00,,,0.00,VWS V14.01,2013-07-10 18:31:00,
2013-07-10 14:36:00,77.6,77.6,29.65,NE,38,5.8,12.3,100,0.00,,,0.00,VWS V14.01,2013-07-10 18:36:00,
2013-07-10 14:40:00,77.6,77.6,29.65,NE,52,7.6,12.3,100,0.00,,,0.00,VWS V14.01,2013-07-10 18:40:00,
2013-07-10 14:41:00,77.6,77.6,29.65,NNE,33,5.4,7.6,100,0.00,,,0.00,VWS V14.01,2013-07-10 18:41:00,
2013-07-10 14:46:00,77.4,77.4,29.65,NNE,16,6.3,8.7,100,0.00,,,0.00,VWS V14.01,2013-07-10 18:46:00,
2013-07-10 14:50:00,77.1,77.1,29.62,NE,34,9.2,10.5,100,0.00,,,0.00,VWS V14.01,2013-07-10 18:50:00,
2013-07-10 14:51:00,76.9,76.9,29.62,NE,50,6.7,9.2,100,0.00,,,0.00,VWS V14.01,2013-07-10 18:51:00,
2013-07-10 14:56:00,76.7,76.7,29.62,NE,43,10.1,10.1,100,0.00,,,0.00,VWS V14.01,2013-07-10 18:56:00,
2013-07-10 15:00:00,76.2,76.2,29.62,North,4,8.3,10.1,100,0.00,,,0.00,VWS V14.01,2013-07-10 19:00:00,
2013-07-10 15:01:00,76.0,76.0,29.62,NNE,30,5.4,8.3,100,0.00,,,0.00,VWS V14.01,2013-07-10 19:01:00,
2013-07-10 15:06:00,75.6,75.7,29.62,North,357,5.4,8.3,100,0.00,,,0.00,VWS V14.01,2013-07-10 19:06:00,
2013-07-10 15:10:00,75.6,75.7,29.62,North,6,5.4,8.3,100,0.00,,,0.00,VWS V14.01,2013-07-10 19:10:00,
2013-07-10 15:11:00,75.8,75.8,29.62,North,6,0.0,5.4,100,0.00,,,0.00,VWS V14.01,2013-07-10 19:11:00,
2013-07-10 15:16:00,75.8,75.8,29.62,NE,48,5.4,8.1,100,0.00,,,0.00,VWS V14.01,2013-07-10 19:16:00,
2013-07-10 15:20:00,75.6,75.7,29.62,NW,308,3.6,8.1,100,0.00,,,0.00,VWS V14.01,2013-07-10 19:20:00,
2013-07-10 15:26:00,75.5,75.5,29.62,NE,38,3.6,5.8,100,0.00,,,0.00,VWS V14.01,2013-07-10 19:26:00,
2013-07-10 15:30:00,75.5,75.5,29.62,NE,38,3.1,5.8,100,0.00,,,0.00,VWS V14.01,2013-07-10 19:30:00,
2013-07-10 15:36:00,75.5,75.5,29.62,NNW,337,0.0,6.3,100,0.00,,,0.00,VWS V14.01,2013-07-10 19:36:00,
2013-07-10 15:40:00,75.5,75.5,29.62,NE,45,0.0,6.3,100,0.00,,,0.00,VWS V14.01,2013-07-10 19:40:00,
2013-07-10 15:41:00,75.5,75.5,29.62,NE,42,0.0,0.0,100,0.00,,,0.00,VWS V14.01,2013-07-10 19:41:00,
2013-07-10 15:46:00,75.3,75.3,29.62,North,7,0.0,4.0,100,0.00,,,0.00,VWS V14.01,2013-07-10 19:46:00,
2013-07-10 15:50:00,75.3,75.3,29.62,North,7,0.0,4.0,100,0.00,,,0.00,VWS V14.01,2013-07-10 19:50:00,
2013-07-10 15:51:00,75.3,75.3,29.62,North,7,0.0,0.0,100,0.00,,,0.00,VWS V14.01,2013-07-10 19:51:00,
2013-07-10 15:56:00,75.3,75.3,29.62,North,7,0.0,0.0,100,0.00,,,0.00,VWS V14.01,2013-07-10 19:56:00,
2013-07-10 16:00:00,75.1,75.1,29.62,North,7,0.0,0.0,100,0.00,,,0.00,VWS V14.01,2013-07-10 20:00:00,
2013-07-10 16:01:00,75.1,75.1,29.62,North,7,0.0,0.0,100,0.00,,,0.00,VWS V14.01,2013-07-10 20:01:00,
2013-07-10 16:06:00,74.9,74.9,29.62,North,7,0.0,0.0,100,0.00,,,0.00,VWS V14.01,2013-07-10 20:06:00,
2013-07-10 16:10:00,74.7,74.8,29.62,NW,319,0.0,3.6,100,0.00,,,0.00,VWS V14.01,2013-07-10 20:10:00,
2013-07-10 16:16:00,74.4,74.4,29.62,NNW,340,0.0,0.0,100,0.00,,,0.00,VWS V14.01,2013-07-10 20:16:00,
2013-07-10 16:20:00,74.4,74.4,29.62,NNW,340,2.7,2.7,100,0.00,,,0.00,VWS V14.01,2013-07-10 20:20:00,
2013-07-10 16:21:00,74.2,74.2,29.62,NNW,340,0.0,2.7,100,0.00,,,0.00,VWS V14.01,2013-07-10 20:21:00,
2013-07-10 16:26:00,74.2,74.2,29.62,NNE,27,3.6,3.6,100,0.00,,,0.00,VWS V14.01,2013-07-10 20:26:00,
2013-07-10 16:30:00,74.2,74.2,29.62,NNE,33,0.0,3.6,100,0.00,,,0.00,VWS V14.01,2013-07-10 20:30:00,
2013-07-10 16:31:00,74.2,74.2,29.62,NNE,33,0.0,0.0,100,0.00,,,0.00,VWS V14.01,2013-07-10 20:31:00,
2013-07-10 16:36:00,74.2,74.2,29.62,NNE,21,0.0,3.6,100,0.00,,,0.00,VWS V14.01,2013-07-10 20:36:00,
2013-07-10 16:40:00,74.4,74.4,29.62,NNE,28,0.0,3.6,100,0.00,,,0.00,VWS V14.01,2013-07-10 20:40:00,
2013-07-10 16:46:00,74.6,74.6,29.62,NNE,28,0.0,3.1,100,0.00,,,0.00,VWS V14.01,2013-07-10 20:46:00,
2013-07-10 16:50:00,74.4,74.4,29.62,NNW,343,2.2,3.6,100,0.00,,,0.00,VWS V14.01,2013-07-10 20:50:00,
2013-07-10 16:51:00,74.4,74.4,29.62,NNW,343,0.0,2.2,100,0.00,,,0.00,VWS V14.01,2013-07-10 20:51:00,
2013-07-10 16:56:00,74.6,74.6,29.62,North,353,0.0,2.7,100,0.00,,,0.00,VWS V14.01,2013-07-10 20:56:00,
2013-07-10 17:00:00,74.7,74.8,29.62,North,353,0.0,2.7,100,0.00,,,0.00,VWS V14.01,2013-07-10 21:00:00,
2013-07-10 17:01:00,74.7,74.8,29.62,North,353,0.0,0.0,100,0.00,,,0.00,VWS V14.01,2013-07-10 21:01:00,
2013-07-10 17:06:00,74.9,74.9,29.62,ENE,58,0.0,3.6,100,0.00,,,0.00,VWS V14.01,2013-07-10 21:06:00,
2013-07-10 17:10:00,74.9,74.9,29.62,NE,47,2.2,3.6,100,0.00,,,0.00,VWS V14.01,2013-07-10 21:10:00,
2013-07-10 17:11:00,74.9,74.9,29.62,NE,47,0.0,3.1,100,0.00,,,0.00,VWS V14.01,2013-07-10 21:11:00,
2013-07-10 17:16:00,74.9,74.9,29.62,NNE,33,2.7,4.5,100,0.00,,,0.00,VWS V14.01,2013-07-10 21:16:00,
2013-07-10 17:20:00,75.1,75.1,29.59,NNE,18,2.7,4.5,100,0.00,,,0.00,VWS V14.01,2013-07-10 21:20:00,
2013-07-10 17:26:00,75.3,75.3,29.59,NE,46,0.0,2.7,100,0.00,,,0.00,VWS V14.01,2013-07-10 21:26:00,
2013-07-10 17:30:00,75.5,75.5,29.59,NE,36,3.6,3.6,100,0.00,,,0.00,VWS V14.01,2013-07-10 21:30:00,
2013-07-10 17:31:00,75.5,75.5,29.59,North,11,2.2,3.6,100,0.00,,,0.00,VWS V14.01,2013-07-10 21:31:00,
2013-07-10 17:36:00,75.5,75.5,29.59,NE,42,0.0,3.6,100,0.00,,,0.00,VWS V14.01,2013-07-10 21:36:00,
2013-07-10 17:40:00,75.5,75.5,29.59,NE,42,0.0,3.6,100,0.00,,,0.00,VWS V14.01,2013-07-10 21:40:00,
2013-07-10 17:41:00,75.5,75.5,29.59,NE,42,0.0,0.0,100,0.00,,,0.00,VWS V14.01,2013-07-10 21:41:00,
2013-07-10 17:46:00,75.3,75.3,29.59,NE,42,0.0,0.0,100,0.00,,,0.00,VWS V14.01,2013-07-10 21:46:00,
2013-07-10 17:50:00,75.3,75.3,29.59,NE,42,2.2,2.7,100,0.00,,,0.00,VWS V14.01,2013-07-10 21:50:00,
2013-07-10 17:51:00,75.3,75.3,29.59,NE,42,2.7,2.7,100,0.00,,,0.00,VWS V14.01,2013-07-10 21:51:00,
2013-07-10 17:56:00,75.3,75.3,29.59,NE,42,0.0,2.7,100,0.00,,,0.00,VWS V14.01,2013-07-10 21:56:00,
2013-07-10 18:00:00,75.3,75.3,29.59,NE,42,0.0,2.7,100,0.00,,,0.00,VWS V14.01,2013-07-10 22:00:00,
2013-07-10 18:01:00,75.3,75.3,29.59,NE,42,0.0,0.0,100,0.00,,,0.00,VWS V14.01,2013-07-10 22:01:00,
2013-07-10 18:06:00,75.3,75.3,29.59,NE,42,0.0,3.1,100,0.00,,,0.00,VWS V14.01,2013-07-10 22:06:00,
2013-07-10 18:10:00,75.3,75.3,29.59,NE,42,0.0,3.1,100,0.00,,,0.00,VWS V14.01,2013-07-10 22:10:00,
2013-07-10 18:11:00,75.3,75.3,29.59,NE,42,0.0,3.1,100,0.00,,,0.00,VWS V14.01,2013-07-10 22:11:00,
2013-07-10 18:16:00,75.5,75.5,29.59,NE,42,0.0,3.1,100,0.00,,,0.00,VWS V14.01,2013-07-10 22:16:00,
2013-07-10 18:20:00,75.5,75.5,29.59,NE,40,3.1,4.0,100,0.00,,,0.00,VWS V14.01,2013-07-10 22:20:00,
2013-07-10 18:26:00,75.8,75.8,29.59,NE,40,0.0,3.6,100,0.00,,,0.00,VWS V14.01,2013-07-10 22:26:00,
2013-07-10 18:30:00,76.0,76.0,29.59,NE,40,0.0,3.6,100,0.00,,,0.00,VWS V14.01,2013-07-10 22:30:00,
2013-07-10 18:31:00,76.0,76.0,29.59,NE,40,0.0,0.0,100,0.00,,,0.00,VWS V14.01,2013-07-10 22:31:00,
2013-07-10 18:36:00,76.4,76.4,29.59,NE,40,0.0,0.0,100,0.00,,,0.00,VWS V14.01,2013-07-10 22:36:00,
2013-07-10 18:40:00,76.5,76.6,29.59,NE,40,0.0,0.0,100,0.00,,,0.00,VWS V14.01,2013-07-10 22:40:00,
2013-07-10 18:41:00,76.7,76.7,29.59,WNW,282,3.1,4.0,100,0.00,,,0.00,VWS V14.01,2013-07-10 22:41:00,
2013-07-10 18:46:00,76.9,76.9,29.59,NNE,31,4.9,5.4,100,0.00,,,0.00,VWS V14.01,2013-07-10 22:46:00,
2013-07-10 18:50:00,77.1,77.1,29.59,North,5,4.0,5.4,100,0.00,,,0.00,VWS V14.01,2013-07-10 22:50:00,
2013-07-10 18:51:00,77.1,77.1,29.59,NE,37,4.0,4.0,100,0.00,,,0.00,VWS V14.01,2013-07-10 22:51:00,
2013-07-10 18:56:00,77.1,77.1,29.59,NNE,17,2.7,4.0,100,0.00,,,0.00,VWS V14.01,2013-07-10 22:56:00,
2013-07-10 19:00:00,77.1,77.1,29.59,NNE,18,3.6,4.9,100,0.00,,,0.00,VWS V14.01,2013-07-10 23:00:00,
2013-07-10 19:01:00,76.9,76.9,29.59,NNE,20,4.0,4.0,100,0.00,,,0.00,VWS V14.01,2013-07-10 23:01:00,
2013-07-10 19:06:00,77.1,77.1,29.59,NNE,28,3.6,4.9,100,0.00,,,0.00,VWS V14.01,2013-07-10 23:06:00,
2013-07-10 19:10:00,77.1,77.1,29.59,NE,37,3.6,4.9,100,0.00,,,0.00,VWS V14.01,2013-07-10 23:10:00,
2013-07-10 19:11:00,77.1,77.1,29.59,NNE,32,3.1,4.9,100,0.00,,,0.00,VWS V14.01,2013-07-10 23:11:00,
2013-07-10 19:16:00,77.1,77.1,29.59,NNE,33,2.7,5.4,100,0.00,,,0.00,VWS V14.01,2013-07-10 23:16:00,
2013-07-10 19:20:00,77.1,77.1,29.59,NE,38,2.7,5.8,100,0.00,,,0.00,VWS V14.01,2013-07-10 23:20:00,
2013-07-10 19:21:00,76.9,76.9,29.59,NE,39,4.0,4.0,100,0.00,,,0.00,VWS V14.01,2013-07-10 23:21:00,
2013-07-10 19:26:00,76.9,76.9,29.59,NE,37,0.0,4.0,100,0.00,,,0.00,VWS V14.01,2013-07-10 23:26:00,
2013-07-10 19:30:00,76.7,76.7,29.59,NE,37,0.0,4.0,100,0.00,,,0.00,VWS V14.01,2013-07-10 23:30:00,
2013-07-10 19:31:00,76.7,76.7,29.59,NE,37,0.0,0.0,100,0.00,,,0.00,VWS V14.01,2013-07-10 23:31:00,
2013-07-10 19:36:00,76.5,76.6,29.59,ENE,64,0.0,3.6,100,0.00,,,0.00,VWS V14.01,2013-07-10 23:36:00,
2013-07-10 19:40:00,76.4,76.4,29.59,NE,41,0.0,3.6,100,0.00,,,0.00,VWS V14.01,2013-07-10 23:40:00,
2013-07-10 19:41:00,76.2,76.2,29.59,NNE,28,2.7,3.6,100,0.00,,,0.00,VWS V14.01,2013-07-10 23:41:00,
2013-07-10 19:46:00,76.0,76.0,29.59,NNE,28,0.0,3.6,100,0.00,,,0.00,VWS V14.01,2013-07-10 23:46:00,
2013-07-10 19:50:00,75.8,75.8,29.59,NNE,28,2.2,3.6,100,0.00,,,0.00,VWS V14.01,2013-07-10 23:50:00,
2013-07-10 19:56:00,75.5,75.5,29.59,NNE,28,0.0,2.2,100,0.00,,,0.00,VWS V14.01,2013-07-10 23:56:00,
2013-07-10 20:00:00,75.5,75.5,29.59,NNE,28,0.0,2.2,100,0.00,,,0.00,VWS V14.01,2013-07-11 00:00:00,
2013-07-10 20:01:00,75.3,75.3,29.59,NNE,28,0.0,0.0,100,0.00,,,0.00,VWS V14.01,2013-07-11 00:01:00,
2013-07-10 20:07:00,75.1,75.1,29.59,NNE,28,0.0,0.0,100,0.00,,,0.00,VWS V14.01,2013-07-11 00:07:00,
2013-07-10 20:10:00,75.1,75.1,29.59,NNE,28,0.0,0.0,100,0.00,,,0.00,VWS V14.01,2013-07-11 00:10:00,
2013-07-10 20:12:00,74.9,74.9,29.59,NNE,28,0.0,0.0,100,0.00,,,0.00,VWS V14.01,2013-07-11 00:12:00,
2013-07-10 20:17:00,74.6,74.6,29.59,NNE,28,0.0,0.0,100,0.00,,,0.00,VWS V14.01,2013-07-11 00:17:00,
2013-07-10 20:20:00,74.6,74.6,29.59,NNE,28,0.0,0.0,100,0.00,,,0.00,VWS V14.01,2013-07-11 00:20:00,
2013-07-10 20:27:00,74.4,74.4,29.59,NNE,28,0.0,0.0,100,0.00,,,0.00,VWS V14.01,2013-07-11 00:27:00,
2013-07-10 20:30:00,74.2,74.2,29.59,NNE,28,0.0,0.0,100,0.00,,,0.00,VWS V14.01,2013-07-11 00:30:00,
2013-07-10 20:37:00,74.0,74.0,29.59,NNE,28,0.0,0.0,100,0.00,,,0.00,VWS V14.01,2013-07-11 00:37:00,
2013-07-10 20:40:00,73.8,73.8,29.59,NNE,28,0.0,0.0,100,0.00,,,0.00,VWS V14.01,2013-07-11 00:40:00,
2013-07-10 20:42:00,73.8,73.8,29.59,NNE,28,0.0,0.0,100,0.00,,,0.00,VWS V14.01,2013-07-11 00:42:00,
2013-07-10 20:47:00,73.7,73.7,29.59,NNE,28,0.0,0.0,100,0.00,,,0.00,VWS V14.01,2013-07-11 00:47:00,
2013-07-10 20:50:00,73.7,73.7,29.59,NNE,28,0.0,0.0,100,0.00,,,0.00,VWS V14.01,2013-07-11 00:50:00,
2013-07-10 20:57:00,73.5,73.5,29.59,NNE,28,0.0,0.0,100,0.00,,,0.00,VWS V14.01,2013-07-11 00:57:00,
2013-07-10 21:00:00,73.5,73.5,29.59,NNE,28,0.0,0.0,100,0.00,,,0.00,VWS V14.01,2013-07-11 01:00:00,
2013-07-10 21:02:00,73.3,73.3,29.59,NNE,28,0.0,0.0,100,0.00,,,0.00,VWS V14.01,2013-07-11 01:02:00,
2013-07-10 21:07:00,73.3,73.3,29.59,NNE,28,0.0,0.0,100,0.00,,,0.00,VWS V14.01,2013-07-11 01:07:00,
2013-07-10 21:10:00,73.3,73.3,29.59,NNE,28,0.0,0.0,100,0.00,,,0.00,VWS V14.01,2013-07-11 01:10:00,
2013-07-10 21:12:00,73.1,73.1,29.59,NNE,28,0.0,0.0,100,0.00,,,0.00,VWS V14.01,2013-07-11 01:12:00,
2013-07-10 21:17:00,73.1,73.1,29.59,NNE,28,0.0,0.0,100,0.00,,,0.00,VWS V14.01,2013-07-11 01:17:00,
2013-07-10 21:20:00,73.1,73.1,29.59,NNE,28,0.0,0.0,100,0.00,,,0.00,VWS V14.01,2013-07-11 01:20:00,
2013-07-10 21:22:00,73.1,73.1,29.59,NNE,28,0.0,0.0,100,0.00,,,0.00,VWS V14.01,2013-07-11 01:22:00,
2013-07-10 21:27:00,72.9,72.9,29.59,NNE,28,0.0,0.0,100,0.00,,,0.00,VWS V14.01,2013-07-11 01:27:00,
2013-07-10 21:30:00,72.9,72.9,29.59,NNE,28,0.0,0.0,100,0.00,,,0.00,VWS V14.01,2013-07-11 01:30:00,
2013-07-10 21:32:00,72.9,72.9,29.59,NNE,28,0.0,0.0,100,0.00,,,0.00,VWS V14.01,2013-07-11 01:32:00,
2013-07-10 21:37:00,72.9,72.9,29.59,NNE,28,0.0,0.0,100,0.00,,,0.00,VWS V14.01,2013-07-11 01:37:00,
2013-07-10 21:40:00,72.9,72.9,29.59,NNE,28,0.0,0.0,100,0.00,,,0.00,VWS V14.01,2013-07-11 01:40:00,
2013-07-10 21:42:00,73.1,73.1,29.59,NNE,28,0.0,0.0,100,0.00,,,0.00,VWS V14.01,2013-07-11 01:42:00,
2013-07-10 21:47:00,73.1,73.1,29.59,NNE,28,0.0,0.0,100,0.00,,,0.00,VWS V14.01,2013-07-11 01:47:00,
2013-07-10 21:50:00,72.9,72.9,29.59,NNE,28,0.0,0.0,100,0.00,,,0.00,VWS V14.01,2013-07-11 01:50:00,
2013-07-10 21:52:00,72.9,72.9,29.59,NNE,28,0.0,0.0,100,0.00,,,0.00,VWS V14.01,2013-07-11 01:52:00,
2013-07-10 21:57:00,72.8,72.8,29.59,NNE,28,0.0,0.0,100,0.00,,,0.00,VWS V14.01,2013-07-11 01:57:00,
2013-07-10 22:00:00,72.6,72.6,29.59,NNE,28,0.0,0.0,100,0.00,,,0.00,VWS V14.01,2013-07-11 02:00:00,
2013-07-10 22:02:00,72.6,72.6,29.59,NNE,28,0.0,0.0,100,0.00,,,0.00,VWS V14.01,2013-07-11 02:02:00,
2013-07-10 22:07:00,72.4,72.4,29.59,NNE,28,0.0,0.0,100,0.00,,,0.00,VWS V14.01,2013-07-11 02:07:00,
2013-07-10 22:10:00,72.4,72.4,29.59,NNE,28,0.0,0.0,100,0.00,,,0.00,VWS V14.01,2013-07-11 02:10:00,
2013-07-10 22:12:00,72.4,72.4,29.59,NNE,28,0.0,0.0,100,0.00,,,0.00,VWS V14.01,2013-07-11 02:12:00,
2013-07-10 22:20:00,72.4,72.4,29.59,NNE,28,0.0,0.0,100,0.00,,,0.00,VWS V14.01,2013-07-11 02:20:00,